Time;durP1;ratioP1;P1;durP2;ratioP2;P2;SDS_P1;SDS_P2;PMS_P1;PMS_P2;Temp;Humidity;BMP_temperature;BMP_pressure;BME280_temperature;BME280_humidity;BME280_pressure;Samples;Min_cycle;Max_cycle;Signal;HPM_P1;HPM_P2
2021/06/22 00:01:32;;;;;;;21.83;8.00;;;;;;;13.72;80.12;101375.47;5065199;28;20025;-66
2021/06/22 00:03:57;;;;;;;23.48;8.05;;;;;;;13.69;79.66;101383.41;5065587;28;20029;-67
2021/06/22 00:06:22;;;;;;;23.23;8.07;;;;;;;13.73;79.63;101385.19;5066761;28;20029;-67
2021/06/22 00:08:48;;;;;;;21.63;7.63;;;;;;;13.68;79.55;101384.31;5064109;28;20029;-67
2021/06/22 00:11:13;;;;;;;23.05;8.15;;;;;;;13.71;80.34;101379.00;5067315;28;20027;-67
2021/06/22 00:13:38;;;;;;;24.15;7.93;;;;;;;13.71;79.72;101376.34;5064316;28;20040;-67
2021/06/22 00:16:04;;;;;;;23.30;8.05;;;;;;;13.67;78.50;101378.09;5066051;28;20029;-66
2021/06/22 00:18:29;;;;;;;24.35;8.50;;;;;;;13.71;80.20;101389.63;5065375;28;20029;-67
2021/06/22 00:20:54;;;;;;;22.05;8.25;;;;;;;13.70;79.36;101387.84;5064802;28;20045;-67
2021/06/22 00:23:20;;;;;;;23.55;8.20;;;;;;;13.72;79.15;101391.41;5066502;28;20610;-68
2021/06/22 00:25:45;;;;;;;24.60;7.97;;;;;;;13.68;78.70;101389.63;5063715;28;20025;-67
2021/06/22 00:28:10;;;;;;;21.73;7.35;;;;;;;13.70;79.24;101382.53;5067146;28;20029;-67
2021/06/22 00:30:36;;;;;;;22.73;8.40;;;;;;;13.70;79.08;101386.09;5064194;28;20031;-66
2021/06/22 00:33:02;;;;;;;24.23;7.97;;;;;;;13.68;79.39;101381.66;5065452;28;20033;-67
2021/06/22 00:35:27;;;;;;;25.15;8.00;;;;;;;13.68;78.76;101384.31;5065656;28;20081;-66
2021/06/22 00:37:52;;;;;;;22.45;7.65;;;;;;;13.65;78.92;101384.31;5064172;28;20025;-67
2021/06/22 00:40:18;;;;;;;22.05;8.00;;;;;;;13.64;78.29;101387.84;5066006;28;20071;-67
2021/06/22 00:42:45;;;;;;;25.70;8.35;;;;;;;13.58;78.83;101386.09;5062715;28;20029;-67
2021/06/22 00:45:12;;;;;;;25.13;7.95;;;;;;;13.57;79.44;101381.63;5066414;28;20023;-68
2021/06/22 00:47:38;;;;;;;24.67;8.60;;;;;;;13.50;78.97;101386.09;5063734;28;20025;-63
2021/06/22 00:50:04;;;;;;;25.05;8.65;;;;;;;13.36;79.16;101390.50;5065554;28;20036;-63
2021/06/22 00:52:30;;;;;;;23.10;8.05;;;;;;;13.33;79.61;101395.78;5064581;28;20052;-63
2021/06/22 00:54:57;;;;;;;22.27;8.48;;;;;;;13.29;80.54;101410.78;5064613;28;20049;-64
2021/06/22 00:57:23;;;;;;;22.33;8.10;;;;;;;13.23;80.53;101411.66;5065736;28;20100;-63
2021/06/22 00:59:49;;;;;;;23.15;8.38;;;;;;;13.13;81.13;101416.94;5063610;28;20024;-63
2021/06/22 01:02:15;;;;;;;25.23;8.98;;;;;;;13.07;81.69;101413.38;5066334;28;20024;-63
2021/06/22 01:04:41;;;;;;;25.48;8.95;;;;;;;13.09;81.81;101416.03;5063005;28;20430;-62
2021/06/22 01:07:10;;;;;;;24.55;8.77;;;;;;;13.05;82.14;101414.28;5065730;28;20079;-63
2021/06/22 01:09:36;;;;;;;25.30;8.85;;;;;;;13.04;81.11;101413.38;5064121;28;20027;-63
2021/06/22 01:12:01;;;;;;;25.30;9.23;;;;;;;13.04;81.90;101412.50;5064952;28;20452;-63
2021/06/22 01:14:27;;;;;;;23.75;8.65;;;;;;;13.10;81.39;101414.28;5064691;28;20051;-63
2021/06/22 01:16:54;;;;;;;25.60;9.35;;;;;;;13.04;82.49;101404.53;5063509;28;20071;-63
2021/06/22 01:19:20;;;;;;;26.75;9.25;;;;;;;13.04;81.93;101412.50;5065305;28;20041;-62
2021/06/22 01:21:47;;;;;;;24.52;9.45;;;;;;;13.02;82.40;101415.16;5062620;28;20080;-63
2021/06/22 01:24:15;;;;;;;26.80;9.55;;;;;;;12.93;82.89;101409.81;5066038;28;20024;-63
2021/06/22 01:26:49;;;;;;;24.17;9.23;;;;;;;12.98;83.36;101412.50;5062719;28;20036;-64
2021/06/22 01:29:15;;;;;;;25.35;9.32;;;;;;;12.89;83.57;101414.22;5058798;28;20025;-62
2021/06/22 01:31:41;;;;;;;26.17;9.63;;;;;;;12.88;83.75;101411.56;5066015;28;20360;-63
2021/06/22 01:34:06;;;;;;;25.73;9.55;;;;;;;12.85;84.20;101415.06;5063191;28;20120;-63
2021/06/22 01:36:34;;;;;;;25.30;9.95;;;;;;;12.76;84.49;101412.41;5064259;28;20064;-63
2021/06/22 01:39:00;;;;;;;24.73;9.88;;;;;;;12.71;84.88;101411.47;5064304;28;20119;-62
2021/06/22 01:41:25;;;;;;;24.92;9.93;;;;;;;12.60;86.11;101416.75;5063245;28;20072;-62
2021/06/22 01:43:51;;;;;;;26.98;10.30;;;;;;;12.53;85.50;101410.50;5063938;28;20060;-62
2021/06/22 01:46:17;;;;;;;25.70;10.40;;;;;;;12.38;86.48;101405.13;5062131;28;20048;-62
2021/06/22 01:48:44;;;;;;;27.70;10.80;;;;;;;12.33;87.32;101401.56;5058160;28;20029;-62
2021/06/22 01:51:09;;;;;;;26.33;10.68;;;;;;;12.24;88.75;101412.13;5065114;28;20020;-62
2021/06/22 01:53:35;;;;;;;27.27;10.98;;;;;;;12.28;88.40;101414.78;5062673;28;20055;-62
2021/06/22 01:56:00;;;;;;;28.83;11.10;;;;;;;12.23;89.04;101416.50;5063449;28;20490;-63
2021/06/22 01:58:26;;;;;;;26.35;11.00;;;;;;;12.27;89.10;101412.13;5064052;28;20052;-66
2021/06/22 02:00:54;;;;;;;25.80;11.07;;;;;;;12.27;89.28;101420.09;5062698;28;20388;-63
2021/06/22 02:03:24;;;;;;;24.48;11.10;;;;;;;12.26;89.62;101410.34;5063388;28;20063;-67
2021/06/22 02:05:50;;;;;;;27.60;11.23;;;;;;;12.20;90.00;101412.09;5061922;28;20033;-67
2021/06/22 02:08:16;;;;;;;30.02;11.85;;;;;;;12.19;90.40;101409.44;5065489;28;20173;-67
2021/06/22 02:10:42;;;;;;;28.45;11.55;;;;;;;12.17;90.74;101403.22;5061949;28;20025;-68
2021/06/22 02:13:08;;;;;;;30.17;12.05;;;;;;;12.12;91.68;101408.50;5064367;28;20036;-67
2021/06/22 02:15:34;;;;;;;28.45;11.55;;;;;;;12.01;92.13;101410.19;5063204;28;20032;-62
2021/06/22 02:17:59;;;;;;;26.40;11.32;;;;;;;12.03;91.82;101414.63;5062853;28;20021;-62
2021/06/22 02:20:25;;;;;;;26.50;11.55;;;;;;;11.97;92.17;101408.38;5063769;28;20056;-62
2021/06/22 02:22:51;;;;;;;28.60;11.05;;;;;;;11.93;92.63;101411.88;5061887;28;20021;-63
2021/06/22 02:25:16;;;;;;;29.52;11.77;;;;;;;11.92;92.70;101421.56;5064723;28;20090;-63
2021/06/22 02:27:42;;;;;;;27.27;11.85;;;;;;;11.83;92.77;101416.19;5061403;28;20025;-62
2021/06/22 02:30:15;;;;;;;27.92;11.32;;;;;;;11.75;94.16;101424.09;5064152;28;20036;-63
2021/06/22 02:32:41;;;;;;;;;;;;;;;11.76;90.51;101428.50;5061655;28;20021;-62
2021/06/22 02:35:09;;;;;;;26.60;11.52;;;;;;;11.69;94.79;101424.00;5063616;28;19966;-64
2021/06/22 02:37:38;;;;;;;27.88;11.85;;;;;;;11.65;95.58;101416.94;5062605;28;20118;-63
2021/06/22 02:40:06;;;;;;;27.67;11.57;;;;;;;11.63;95.40;101413.38;5061936;28;20033;-62
2021/06/22 02:42:31;;;;;;;28.55;12.43;;;;;;;11.63;96.16;101414.25;5062555;28;20029;-65
2021/06/22 02:44:56;;;;;;;28.77;11.98;;;;;;;11.59;96.95;101414.22;5062418;28;20047;-63
2021/06/22 02:47:23;;;;;;;27.05;11.85;;;;;;;11.57;96.76;101408.91;5063800;28;20056;-64
2021/06/22 02:49:49;;;;;;;28.27;12.15;;;;;;;11.54;96.90;101400.06;5060913;28;20035;-62
2021/06/22 02:52:14;;;;;;;30.42;12.38;;;;;;;11.56;97.37;101400.94;5064714;28;20020;-63
2021/06/22 02:54:39;;;;;;;29.30;12.00;;;;;;;11.55;96.54;101400.06;5061239;28;20040;-63
2021/06/22 02:57:09;;;;;;;29.52;11.80;;;;;;;11.53;97.41;101399.16;5061717;28;20040;-63
2021/06/22 02:59:36;;;;;;;27.80;11.93;;;;;;;11.52;98.15;101405.34;5062188;28;20475;-63
2021/06/22 03:02:03;;;;;;;27.48;11.93;;;;;;;11.55;97.37;101393.88;5062584;28;20396;-65
2021/06/22 03:04:28;;;;;;;27.23;11.90;;;;;;;11.51;97.36;101404.44;5062082;28;20394;-63
2021/06/22 03:06:54;;;;;;;29.05;12.10;;;;;;;11.54;97.77;101405.34;5061830;28;20050;-64
2021/06/22 03:09:19;;;;;;;27.98;11.90;;;;;;;11.56;97.31;101407.13;5064301;28;20521;-64
2021/06/22 03:11:45;;;;;;;26.63;11.65;;;;;;;11.57;97.74;101405.38;5060828;28;20040;-63
2021/06/22 03:14:10;;;;;;;28.02;11.98;;;;;;;11.55;97.04;101412.41;5063821;28;20035;-63
2021/06/22 03:16:36;;;;;;;27.77;11.73;;;;;;;11.52;97.02;101411.50;5061625;28;20375;-64
2021/06/22 03:19:01;;;;;;;26.15;11.65;;;;;;;11.57;97.21;101418.63;5062550;28;20074;-64
2021/06/22 03:21:26;;;;;;;27.33;11.57;;;;;;;11.52;97.98;101415.94;5063424;28;20352;-65
2021/06/22 03:23:52;;;;;;;28.23;12.15;;;;;;;11.52;98.14;101411.50;5060969;28;20104;-65
2021/06/22 03:26:17;;;;;;;27.00;11.98;;;;;;;11.56;97.98;101412.41;5064565;28;20533;-65
2021/06/22 03:28:43;;;;;;;27.08;12.27;;;;;;;11.61;97.63;101428.38;5060686;28;20064;-64
2021/06/22 03:31:08;;;;;;;29.15;12.00;;;;;;;11.58;96.38;101423.06;5063108;28;20168;-63
2021/06/22 03:33:33;;;;;;;28.08;11.77;;;;;;;11.60;97.65;101423.94;5062087;28;20394;-64
2021/06/22 03:35:59;;;;;;;27.75;12.77;;;;;;;11.61;98.21;101413.38;5061863;28;20029;-65
2021/06/22 03:38:24;;;;;;;26.23;12.18;;;;;;;11.64;98.17;101415.16;5063139;28;20035;-65
2021/06/22 03:40:49;;;;;;;28.48;12.73;;;;;;;11.61;98.50;101421.31;5060746;28;20105;-65
2021/06/22 03:43:15;;;;;;;27.27;11.82;;;;;;;11.69;97.17;101424.00;5062544;28;20411;-64
2021/06/22 03:45:40;;;;;;;28.17;12.00;;;;;;;11.73;96.71;101435.53;5060818;28;20025;-64
2021/06/22 03:48:07;;;;;;;25.75;12.25;;;;;;;11.75;96.78;101444.38;5062701;28;20468;-64
2021/06/22 03:50:33;;;;;;;29.45;12.30;;;;;;;11.74;95.88;101438.19;5062016;28;20032;-64
2021/06/22 03:52:58;;;;;;;27.13;12.55;;;;;;;11.85;95.40;101440.94;5061537;28;20029;-64
2021/06/22 03:55:27;;;;;;;26.23;11.45;;;;;;;11.83;95.64;101437.41;5063345;28;20029;-63
2021/06/22 03:57:55;;;;;;;26.77;11.68;;;;;;;11.86;96.17;101448.00;5060804;28;20022;-63
2021/06/22 04:00:21;;;;;;;26.83;11.27;;;;;;;11.90;94.81;101448.91;5063546;28;20352;-62
2021/06/22 04:02:48;;;;;;;26.63;11.30;;;;;;;11.89;94.56;101452.47;5060341;28;20025;-62
2021/06/22 04:05:13;;;;;;;27.17;10.90;;;;;;;11.87;93.67;101455.09;5063676;28;20025;-62
2021/06/22 04:07:39;;;;;;;26.05;11.48;;;;;;;11.95;94.56;101457.84;5060758;28;20494;-62
2021/06/22 04:10:04;;;;;;;27.42;11.40;;;;;;;11.99;94.15;101455.22;5062515;28;20029;-62
2021/06/22 04:12:30;;;;;;;27.38;11.60;;;;;;;12.02;92.87;101454.38;5061940;28;20099;-66
2021/06/22 04:14:55;;;;;;;27.75;11.57;;;;;;;12.01;93.31;101460.53;5061527;28;20036;-69
2021/06/22 04:17:20;;;;;;;27.13;12.02;;;;;;;12.01;93.27;101458.78;5066965;28;20032;-66
2021/06/22 04:19:46;;;;;;;27.83;12.13;;;;;;;11.98;93.29;101458.72;5063355;28;20068;-66
2021/06/22 04:22:11;;;;;;;28.20;12.02;;;;;;;12.01;93.63;101460.53;5066830;28;20028;-66
2021/06/22 04:24:36;;;;;;;25.25;11.40;;;;;;;12.05;92.95;101464.97;5064690;28;20032;-67
2021/06/22 04:27:02;;;;;;;26.42;11.40;;;;;;;12.09;93.22;101464.13;5065231;28;20028;-67
2021/06/22 04:29:27;;;;;;;27.20;11.95;;;;;;;12.19;92.63;101465.09;5066266;28;20033;-67
2021/06/22 04:31:53;;;;;;;27.10;11.70;;;;;;;12.24;92.01;101473.09;5063889;28;20102;-67
2021/06/22 04:34:19;;;;;;;24.83;11.00;;;;;;;12.37;91.24;101470.50;5067024;28;20409;-67
2021/06/22 04:36:44;;;;;;;26.02;11.00;;;;;;;12.41;90.58;101478.47;5063458;28;20025;-68
2021/06/22 04:39:10;;;;;;;28.27;11.43;;;;;;;12.50;90.11;101478.56;5066141;28;20025;-66
2021/06/22 04:41:35;;;;;;;27.83;11.77;;;;;;;12.56;89.69;101473.28;5064414;28;20035;-67
2021/06/22 04:44:01;;;;;;;26.20;10.73;;;;;;;12.59;88.53;101483.03;5064882;28;20060;-65
2021/06/22 04:46:27;;;;;;;25.90;11.27;;;;;;;12.63;88.54;101490.16;5065775;28;20024;-66
2021/06/22 04:48:52;;;;;;;25.02;10.77;;;;;;;12.70;87.59;101487.53;5063415;28;20072;-66
2021/06/22 04:51:17;;;;;;;26.30;12.00;;;;;;;12.79;88.36;101496.44;5066907;28;20033;-67
2021/06/22 04:53:43;;;;;;;28.27;11.45;;;;;;;12.78;87.60;101500.81;5063105;28;20025;-67
2021/06/22 04:56:08;;;;;;;26.08;11.55;;;;;;;12.80;86.67;101503.47;5065605;28;20112;-67
2021/06/22 04:58:35;;;;;;;25.55;11.18;;;;;;;12.80;87.29;101493.78;5064403;28;20020;-70
2021/06/22 05:01:04;;;;;;;26.48;10.98;;;;;;;12.84;87.03;101494.66;5064458;28;20133;-66
2021/06/22 05:03:34;;;;;;;25.70;10.88;;;;;;;12.84;87.83;101500.88;5064964;28;20113;-64
2021/06/22 05:06:00;;;;;;;27.00;11.40;;;;;;;12.78;87.85;101499.94;5064497;28;20456;-65
2021/06/22 05:08:25;;;;;;;25.13;10.80;;;;;;;12.79;87.56;101502.59;5065449;28;20101;-63
2021/06/22 05:10:51;;;;;;;27.30;10.60;;;;;;;12.80;87.10;101503.47;5062745;28;20021;-63
2021/06/22 05:13:16;;;;;;;28.55;11.13;;;;;;;12.84;87.44;101499.97;5066198;28;20032;-65
2021/06/22 05:15:41;;;;;;;25.55;11.02;;;;;;;12.86;88.02;101506.19;5062834;28;20075;-64
2021/06/22 05:18:07;;;;;;;26.27;11.02;;;;;;;12.93;86.20;101505.34;5064998;28;20043;-63
2021/06/22 05:20:32;;;;;;;24.73;10.68;;;;;;;13.00;86.34;101512.44;5063972;28;20045;-63
2021/06/22 05:22:58;;;;;;;28.27;10.75;;;;;;;13.02;86.19;101505.38;5063486;28;20429;-62
2021/06/22 05:25:23;;;;;;;26.27;10.77;;;;;;;13.06;85.24;101516.88;5065480;28;20024;-63
2021/06/22 05:27:49;;;;;;;26.48;10.70;;;;;;;13.10;86.18;101518.69;5061577;28;20056;-63
2021/06/22 05:30:15;;;;;;;27.67;11.07;;;;;;;13.09;85.18;101516.91;5065729;28;20037;-63
2021/06/22 05:32:40;;;;;;;26.20;10.73;;;;;;;13.11;85.84;101512.50;5063171;28;20072;-62
2021/06/22 05:35:06;;;;;;;27.73;11.15;;;;;;;13.23;86.04;101511.66;5064584;28;20492;-63
2021/06/22 05:37:32;;;;;;;27.67;11.70;;;;;;;13.24;86.35;101511.66;5063783;28;20119;-63
2021/06/22 05:39:57;;;;;;;26.42;12.43;;;;;;;13.32;85.13;101513.47;5063316;28;20084;-64
2021/06/22 05:42:23;;;;;;;26.90;12.38;;;;;;;13.26;84.94;101509.00;5065124;28;20032;-63
2021/06/22 05:44:48;;;;;;;29.85;12.63;;;;;;;13.30;85.73;101512.59;5062048;28;20025;-63
2021/06/22 05:47:13;;;;;;;27.80;12.60;;;;;;;13.40;86.45;101511.78;5065538;28;20486;-64
2021/06/22 05:49:39;;;;;;;29.08;12.52;;;;;;;13.41;84.22;101509.13;5057575;28;20084;-63
2021/06/22 05:52:05;;;;;;;27.05;12.20;;;;;;;13.50;84.73;101510.91;5059145;28;20033;-60
2021/06/22 05:54:30;;;;;;;25.67;11.80;;;;;;;13.55;83.70;101514.44;5059495;28;20028;-60
2021/06/22 05:56:55;;;;;;;29.77;12.40;;;;;;;13.59;85.12;101523.34;5060567;28;20047;-62
2021/06/22 05:59:21;;;;;;;27.92;12.00;;;;;;;13.61;84.84;101529.53;5057623;28;20025;-62
2021/06/22 06:01:46;;;;;;;26.58;12.10;;;;;;;13.64;84.99;101529.53;5059066;28;20425;-61
2021/06/22 06:04:11;;;;;;;26.33;11.70;;;;;;;13.70;84.67;101526.91;5057708;28;20029;-62
2021/06/22 06:06:36;;;;;;;25.70;11.68;;;;;;;13.70;83.72;101529.56;5061273;28;20021;-61
2021/06/22 06:09:02;;;;;;;26.60;12.38;;;;;;;13.74;85.30;101527.78;5057344;28;20021;-61
2021/06/22 06:11:27;;;;;;;28.58;11.93;;;;;;;13.87;85.05;101532.22;5058466;28;20048;-61
2021/06/22 06:13:53;;;;;;;27.83;13.25;;;;;;;13.90;82.20;101528.69;5058968;28;20024;-61
2021/06/22 06:16:18;;;;;;;27.67;12.57;;;;;;;13.89;83.02;101532.22;5059083;28;20078;-62
2021/06/22 06:18:44;;;;;;;27.75;12.48;;;;;;;13.97;81.75;101530.47;5057198;28;20017;-63
2021/06/22 06:21:09;;;;;;;28.42;13.07;;;;;;;14.04;82.23;101531.38;5058447;28;20045;-62
2021/06/22 06:23:39;;;;;;;27.88;12.02;;;;;;;14.06;81.03;101537.59;5059219;28;20068;-63
2021/06/22 06:26:06;;;;;;;28.40;12.18;;;;;;;14.05;80.33;101533.13;5057133;28;20029;-62
2021/06/22 06:28:35;;;;;;;29.10;11.75;;;;;;;14.11;79.76;101534.03;5060493;28;20021;-62
2021/06/22 06:31:01;;;;;;;26.83;11.38;;;;;;;14.18;79.20;101539.34;5058585;28;20466;-61
2021/06/22 06:33:27;;;;;;;26.20;10.95;;;;;;;14.27;79.12;101540.25;5056288;28;20029;-62
2021/06/22 06:35:54;;;;;;;26.85;11.02;;;;;;;14.27;77.95;101545.56;5057354;28;20021;-62
2021/06/22 06:38:20;;;;;;;25.45;10.10;;;;;;;14.36;77.25;101541.13;5056959;28;20104;-62
2021/06/22 06:40:46;;;;;;;26.35;10.68;;;;;;;14.47;77.53;101540.25;5057656;28;20394;-63
2021/06/22 06:43:11;;;;;;;24.83;10.77;;;;;;;14.53;76.23;101546.44;5056318;28;20024;-62
2021/06/22 06:45:36;;;;;;;25.13;10.13;;;;;;;14.51;75.32;101549.09;5057645;28;20025;-63
2021/06/22 06:48:02;;;;;;;27.30;10.43;;;;;;;14.53;75.83;101552.63;5057078;28;20431;-62
2021/06/22 06:50:27;;;;;;;26.15;11.13;;;;;;;14.52;74.07;101550.88;5049054;28;20031;-63
2021/06/22 06:52:53;;;;;;;26.45;10.77;;;;;;;14.46;74.68;101551.78;5053308;28;20025;-63
2021/06/22 06:55:25;;;;;;;28.58;12.18;;;;;;;14.37;75.27;101562.44;5052084;28;20360;-62
2021/06/22 06:58:02;;;;;;;27.63;11.63;;;;;;;14.43;76.21;101553.53;5052803;28;20025;-63
2021/06/22 07:00:30;;;;;;;30.25;12.50;;;;;;;14.47;76.09;101553.56;5051093;28;20044;-66
2021/06/22 07:02:56;;;;;;;28.25;13.15;;;;;;;14.50;75.11;101552.66;5046801;28;20020;-67
2021/06/22 07:05:22;;;;;;;29.30;13.45;;;;;;;14.53;75.17;101555.28;5045610;28;20700;-67
2021/06/22 07:07:47;;;;;;;29.67;13.68;;;;;;;14.69;76.30;101550.88;5049601;28;20104;-65
2021/06/22 07:10:13;;;;;;;33.08;13.68;;;;;;;14.81;75.17;101550.00;5050795;28;20021;-64
2021/06/22 07:12:39;;;;;;;29.27;13.07;;;;;;;14.79;73.93;101550.00;5051887;28;20384;-66
2021/06/22 07:15:07;;;;;;;30.30;14.40;;;;;;;14.84;75.39;101554.41;5050871;28;20021;-67
2021/06/22 07:17:33;;;;;;;30.20;14.38;;;;;;;14.93;76.60;101557.06;5050357;28;20032;-69
2021/06/22 07:19:58;;;;;;;31.38;15.68;;;;;;;14.93;75.76;101552.63;5051475;28;20407;-67
2021/06/22 07:22:24;;;;;;;32.30;16.40;;;;;;;14.94;75.13;101549.06;5048810;28;20037;-67
2021/06/22 07:24:51;;;;;;;30.77;16.52;;;;;;;14.90;72.96;101557.09;5049953;28;20120;-66
2021/06/22 07:27:16;;;;;;;30.73;16.90;;;;;;;14.98;75.44;101553.50;5050265;28;20017;-65
2021/06/22 07:29:41;;;;;;;32.35;17.00;;;;;;;15.08;73.64;101558.78;5049234;28;20017;-66
2021/06/22 07:32:07;;;;;;;32.90;17.15;;;;;;;15.22;71.97;101558.72;5046066;28;20115;-65
2021/06/22 07:34:33;;;;;;;31.85;17.70;;;;;;;15.47;70.44;101560.41;5050580;28;20033;-68
2021/06/22 07:36:59;;;;;;;30.98;17.23;;;;;;;15.72;69.57;101549.63;5049441;28;20112;-66
2021/06/22 07:39:24;;;;;;;33.20;17.15;;;;;;;16.02;70.18;101553.91;5050348;28;20029;-66
2021/06/22 07:41:50;;;;;;;31.92;17.05;;;;;;;16.21;68.61;101565.34;5050953;28;20040;-65
2021/06/22 07:44:15;;;;;;;31.55;16.50;;;;;;;16.33;68.41;101564.34;5047105;28;20013;-66
2021/06/22 07:46:40;;;;;;;30.02;16.00;;;;;;;16.49;67.48;101572.22;5051446;28;20028;-65
2021/06/22 07:49:06;;;;;;;28.73;15.55;;;;;;;16.61;64.04;101568.56;5049117;28;20468;-66
2021/06/22 07:51:31;;;;;;;30.65;15.82;;;;;;;16.66;64.42;101574.72;5052547;28;20110;-66
2021/06/22 07:53:57;;;;;;;30.08;15.18;;;;;;;16.78;63.71;101566.63;5052517;28;20495;-67
2021/06/22 07:56:23;;;;;;;29.38;16.00;;;;;;;16.89;64.70;101578.13;5048265;28;20100;-65
2021/06/22 07:58:48;;;;;;;28.17;15.90;;;;;;;16.86;64.15;101569.19;5053099;28;20108;-67
2021/06/22 08:01:13;;;;;;;31.63;15.95;;;;;;;17.01;62.91;101574.44;5052078;28;20053;-67
2021/06/22 08:03:39;;;;;;;30.30;14.43;;;;;;;17.08;62.33;101578.81;5059105;28;20020;-67
2021/06/22 08:06:04;;;;;;;29.58;15.18;;;;;;;17.15;61.33;101576.06;5062590;28;20029;-68
2021/06/22 08:08:31;;;;;;;27.48;14.10;;;;;;;17.22;61.01;101585.78;5058678;28;20235;-67
2021/06/22 08:10:59;;;;;;;28.98;14.43;;;;;;;17.22;62.10;101589.31;5053849;28;20029;-66
2021/06/22 08:13:24;;;;;;;28.40;14.65;;;;;;;17.10;61.21;101585.91;5050295;28;20375;-66
2021/06/22 08:15:50;;;;;;;28.50;14.35;;;;;;;16.87;61.70;101587.91;5060904;28;20033;-66
2021/06/22 08:18:16;;;;;;;28.75;14.50;;;;;;;16.68;62.96;101597.84;5058836;28;20506;-66
2021/06/22 08:20:43;;;;;;;29.77;15.27;;;;;;;16.45;61.68;101583.81;5052367;28;20049;-65
2021/06/22 08:23:09;;;;;;;30.45;15.45;;;;;;;16.47;63.26;101588.25;5061931;28;20041;-66
2021/06/22 08:25:35;;;;;;;30.13;15.57;;;;;;;16.47;62.79;101584.69;5060742;28;20066;-66
2021/06/22 08:28:00;;;;;;;31.15;15.60;;;;;;;16.63;63.63;101583.69;5061585;28;20056;-66
2021/06/22 08:30:27;;;;;;;29.33;16.05;;;;;;;16.95;61.67;101581.59;5062899;28;20495;-66
2021/06/22 08:32:53;;;;;;;29.90;16.15;;;;;;;17.27;61.67;101586.63;5061272;28;20025;-64
2021/06/22 08:35:18;;;;;;;30.70;15.65;;;;;;;17.42;59.79;101590.88;5060829;28;20032;-61
2021/06/22 08:37:44;;;;;;;30.33;15.77;;;;;;;17.57;59.48;101581.78;5061730;28;20021;-62
2021/06/22 08:40:11;;;;;;;29.95;15.55;;;;;;;17.51;59.89;101579.19;5061612;28;20029;-62
2021/06/22 08:42:39;;;;;;;29.52;15.90;;;;;;;17.31;59.76;101582.97;5064619;28;20381;-62
2021/06/22 08:45:07;;;;;;;30.48;16.27;;;;;;;17.41;59.45;101581.09;5063946;28;20028;-62
2021/06/22 08:47:33;;;;;;;32.38;16.88;;;;;;;17.41;59.80;101587.31;5064223;28;20033;-62
2021/06/22 08:49:59;;;;;;;31.55;16.80;;;;;;;17.30;58.93;101580.31;5060861;28;20438;-62
2021/06/22 08:52:29;;;;;;;39.03;18.38;;;;;;;17.31;58.89;101574.97;5060615;28;20119;-68
2021/06/22 08:54:54;;;;;;;30.65;15.98;;;;;;;17.49;58.87;101565.84;5065037;28;20029;-68
2021/06/22 08:57:21;;;;;;;29.75;17.13;;;;;;;17.80;57.47;101570.78;5065223;28;20360;-69
2021/06/22 08:59:47;;;;;;;27.95;16.25;;;;;;;18.05;56.13;101568.66;5061114;28;20029;-67
2021/06/22 09:02:23;;;;;;;30.42;17.25;;;;;;;18.66;54.83;101578.38;5053778;28;20024;-62
2021/06/22 09:04:49;;;;;;;30.20;17.08;;;;;;;19.22;54.75;101572.88;5054427;28;20029;-63
2021/06/22 09:07:44;;;;;;;28.55;16.63;;;;;;;20.05;53.92;101557.66;5065013;28;20375;-68
2021/06/22 09:10:27;;;;;;;29.13;15.93;;;;;;;20.63;51.99;101568.75;5059694;28;20115;-69
2021/06/22 09:12:54;;;;;;;31.75;17.13;;;;;;;20.43;49.26;101563.91;5054830;28;20024;-68
2021/06/22 09:15:24;;;;;;;30.92;17.60;;;;;;;20.12;50.45;101570.03;5059440;28;20021;-72
2021/06/22 09:17:50;;;;;;;29.48;17.15;;;;;;;19.59;50.68;101573.00;5055254;28;20106;-67
2021/06/22 09:20:33;;;;;;;29.52;19.13;;;;;;;19.35;52.61;101577.06;5057782;28;20487;-66
2021/06/22 09:23:17;;;;;;;31.63;19.52;;;;;;;19.27;52.90;101574.56;5058676;28;20037;-67
2021/06/22 09:25:45;;;;;;;30.13;18.70;;;;;;;19.21;51.41;101573.78;5060439;28;20058;-66
2021/06/22 09:28:11;;;;;;;29.27;17.92;;;;;;;19.23;51.24;101558.56;5060284;28;20376;-68
2021/06/22 09:30:37;;;;;;;34.50;17.90;;;;;;;19.07;50.93;101566.91;5055641;28;20476;-69
2021/06/22 09:33:15;;;;;;;30.35;17.80;;;;;;;18.91;52.43;101560.09;5059274;28;20024;-61
2021/06/22 09:35:40;;;;;;;31.33;18.70;;;;;;;18.64;52.36;101549.81;5059570;28;20085;-61
2021/06/22 09:38:05;;;;;;;30.77;18.25;;;;;;;18.53;52.44;101567.00;5062638;28;20426;-62
2021/06/22 09:40:31;;;;;;;33.47;18.40;;;;;;;18.30;53.45;101562.91;5059579;28;20028;-62
2021/06/22 09:42:58;;;;;;;31.35;18.50;;;;;;;18.26;53.56;101564.75;5065242;28;20050;-62
2021/06/22 09:45:25;;;;;;;30.80;18.42;;;;;;;18.21;54.59;101571.09;5060773;28;20025;-61
2021/06/22 09:47:51;;;;;;;32.72;18.70;;;;;;;18.13;54.43;101563.19;5064347;28;20079;-62
2021/06/22 09:50:38;;;;;;;32.60;20.63;;;;;;;18.19;54.95;101564.84;5060213;28;20048;-62
2021/06/22 09:53:22;;;;;;;34.65;20.65;;;;;;;18.10;55.29;101568.56;5062135;28;20032;-62
2021/06/22 09:55:48;;;;;;;30.98;20.23;;;;;;;17.93;54.16;101568.84;5063138;28;20051;-62
2021/06/22 09:58:14;;;;;;;32.42;20.27;;;;;;;18.05;55.06;101570.44;5055412;28;20067;-62
2021/06/22 10:00:39;;;;;;;31.50;21.70;;;;;;;18.02;54.17;101570.50;5063825;28;20081;-62
2021/06/22 10:03:05;;;;;;;32.63;21.52;;;;;;;18.01;54.18;101569.59;5061754;28;20028;-63
2021/06/22 10:05:30;;;;;;;34.17;22.63;;;;;;;18.09;53.90;101573.03;5057627;28;20059;-63
2021/06/22 10:08:00;;;;;;;31.98;22.23;;;;;;;18.22;53.76;101567.53;5064518;28;20115;-63
2021/06/22 10:10:36;;;;;;;33.47;21.95;;;;;;;18.46;54.21;101567.09;5061280;28;20021;-63
2021/06/22 10:13:01;;;;;;;39.03;23.83;;;;;;;18.49;51.85;101563.47;5059042;28;20486;-63
2021/06/22 10:15:26;;;;;;;38.90;24.10;;;;;;;18.47;52.89;101574.22;5064268;28;20039;-63
2021/06/22 10:17:52;;;;;;;32.60;24.00;;;;;;;18.44;52.05;101560.88;5061290;28;20059;-63
2021/06/22 10:20:17;;;;;;;33.17;23.95;;;;;;;18.61;51.82;101571.31;5064187;28;20514;-63
2021/06/22 10:22:45;;;;;;;33.65;23.92;;;;;;;18.77;51.62;101566.56;5062270;28;20032;-62
2021/06/22 10:25:11;;;;;;;33.72;23.02;;;;;;;19.12;51.60;101569.50;5063365;28;20384;-63
2021/06/22 10:27:37;;;;;;;32.10;22.20;;;;;;;19.22;50.48;101576.47;5063065;28;20016;-63
2021/06/22 10:30:05;;;;;;;33.42;22.13;;;;;;;19.29;49.67;101575.38;5062087;28;20028;-63
2021/06/22 10:32:31;;;;;;;37.97;22.35;;;;;;;19.41;50.78;101573.38;5064108;28;20379;-63
2021/06/22 10:35:00;;;;;;;32.92;20.73;;;;;;;19.69;48.59;101569.19;5061429;28;20036;-63
2021/06/22 10:37:31;;;;;;;30.02;20.17;;;;;;;19.80;47.72;101571.66;5064556;28;20023;-63
2021/06/22 10:40:05;;;;;;;35.05;20.80;;;;;;;20.13;47.20;101563.75;5058110;28;20033;-63
2021/06/22 10:42:52;;;;;;;30.67;21.13;;;;;;;20.43;47.43;101574.66;5063877;28;20368;-63
2021/06/22 10:45:18;;;;;;;31.95;21.38;;;;;;;20.23;46.26;101566.19;5064291;28;20387;-62
2021/06/22 10:47:45;;;;;;;29.92;18.55;;;;;;;20.46;46.19;101558.47;5062175;28;20024;-63
2021/06/22 10:50:23;;;;;;;32.13;20.10;;;;;;;20.49;47.23;101565.53;5062787;28;20032;-63
2021/06/22 10:53:07;;;;;;;30.88;20.40;;;;;;;20.37;47.19;101577.47;5061165;28;20024;-62
2021/06/22 10:55:41;;;;;;;31.48;19.35;;;;;;;20.47;46.65;101583.50;5059390;28;20115;-62
2021/06/22 10:58:06;;;;;;;30.92;20.08;;;;;;;20.46;46.51;101577.25;5063082;28;20051;-62
2021/06/22 11:00:41;;;;;;;30.17;19.67;;;;;;;20.82;47.01;101579.91;5061662;28;20464;-62
2021/06/22 11:03:21;;;;;;;30.25;19.98;;;;;;;21.01;46.15;101579.41;5062552;28;20032;-62
2021/06/22 11:05:46;;;;;;;29.40;19.30;;;;;;;21.43;44.74;101587.19;5063604;28;20047;-63
2021/06/22 11:08:15;;;;;;;32.33;19.50;;;;;;;21.59;43.07;101569.69;5062411;28;20460;-62
2021/06/22 11:10:46;;;;;;;31.77;20.15;;;;;;;21.48;44.33;101568.22;5062686;28;20044;-63